Time;durP1;ratioP1;P1;durP2;ratioP2;P2;SDS_P1;SDS_P2;PMS_P1;PMS_P2;Temp;Humidity;BMP_temperature;BMP_pressure;BME280_temperature;BME280_humidity;BME280_pressure;Samples;Min_cycle;Max_cycle;Signal;HPM_P1;HPM_P2
2022/06/27 00:00:52;;;;;;;4.90;3.00;;;;;;;18.81;94.02;95481.00;5074015;28;20031;-69
2022/06/27 00:03:18;;;;;;;7.63;3.42;;;;;;;18.79;93.96;95477.69;5075991;28;20492;-68
2022/06/27 00:05:43;;;;;;;5.75;3.03;;;;;;;18.75;94.91;95482.59;5080735;28;20412;-69
2022/06/27 00:08:09;;;;;;;5.63;2.88;;;;;;;18.71;94.72;95486.69;5077611;28;20115;-69
2022/06/27 00:10:34;;;;;;;5.20;3.10;;;;;;;18.67;94.71;95481.94;5074154;28;20024;-68
2022/06/27 00:12:59;;;;;;;6.97;2.95;;;;;;;18.69;94.48;95482.59;5079590;28;20510;-68
2022/06/27 00:15:25;;;;;;;5.95;2.92;;;;;;;18.73;94.30;95478.50;5078045;28;20468;-68
2022/06/27 00:17:51;;;;;;;3.90;2.70;;;;;;;18.78;93.42;95478.72;5082846;28;20464;-68
2022/06/27 00:20:16;;;;;;;7.00;3.08;;;;;;;18.82;93.71;95473.81;5081962;28;20085;-68
2022/06/27 00:22:42;;;;;;;13.35;2.90;;;;;;;18.77;93.38;95477.09;5084005;28;20024;-68
2022/06/27 00:25:08;;;;;;;4.90;3.03;;;;;;;18.68;93.96;95478.25;5085292;28;20128;-68
2022/06/27 00:27:34;;;;;;;4.40;2.85;;;;;;;18.66;93.93;95474.97;5093230;28;20017;-68
2022/06/27 00:30:00;;;;;;;3.20;2.80;;;;;;;18.68;92.95;95473.75;5090533;28;20028;-68
2022/06/27 00:32:26;;;;;;;4.20;3.00;;;;;;;18.69;92.48;95471.94;5076197;28;20032;-68
2022/06/27 00:34:52;;;;;;;3.53;2.80;;;;;;;18.66;93.32;95472.28;5087834;28;20089;-69
2022/06/27 00:37:18;;;;;;;4.80;2.67;;;;;;;18.63;93.90;95470.88;5078907;28;20017;-68
2022/06/27 00:39:43;;;;;;;3.58;3.00;;;;;;;18.61;94.38;95467.59;5081549;28;20025;-69
2022/06/27 00:42:08;;;;;;;3.28;2.97;;;;;;;18.63;93.81;95467.38;5085298;28;20444;-69
2022/06/27 00:44:35;;;;;;;10.20;2.72;;;;;;;18.66;93.63;95465.13;5081557;28;20025;-69
2022/06/27 00:47:02;;;;;;;4.93;3.13;;;;;;;18.68;93.40;95464.91;5084386;28;20021;-68
2022/06/27 00:49:27;;;;;;;9.30;3.05;;;;;;;18.70;93.64;95457.56;5077457;28;20078;-68
2022/06/27 00:51:53;;;;;;;3.15;2.80;;;;;;;18.76;92.87;95460.25;5088440;28;20020;-69
2022/06/27 00:54:19;;;;;;;7.80;2.72;;;;;;;18.84;92.34;95463.78;5085334;28;20024;-69
2022/06/27 00:56:45;;;;;;;3.65;3.15;;;;;;;18.89;92.52;95456.00;5088011;28;20051;-69
2022/06/27 00:59:10;;;;;;;4.32;2.90;;;;;;;18.88;93.49;95451.69;5079120;28;20065;-69
2022/06/27 01:01:35;;;;;;;5.43;3.38;;;;;;;18.88;92.72;95457.81;5087372;28;20028;-69
2022/06/27 01:04:01;;;;;;;3.33;2.75;;;;;;;18.92;92.48;95462.78;5084766;28;20058;-69
2022/06/27 01:06:27;;;;;;;3.33;3.03;;;;;;;18.99;92.27;95460.97;5079997;28;20568;-68
2022/06/27 01:08:53;;;;;;;5.78;3.10;;;;;;;18.99;92.61;95458.31;5086036;28;20028;-69
2022/06/27 01:11:19;;;;;;;8.07;3.00;;;;;;;19.00;92.49;95462.63;5096460;28;20027;-69
2022/06/27 01:13:45;;;;;;;4.60;2.70;;;;;;;19.04;92.03;95464.69;5081636;28;20052;-69
2022/06/27 01:16:10;;;;;;;3.67;2.35;;;;;;;19.10;92.07;95460.38;5084147;28;20052;-68
2022/06/27 01:18:36;;;;;;;4.63;2.88;;;;;;;19.16;92.15;95467.59;5093986;28;20024;-69
2022/06/27 01:21:02;;;;;;;3.17;2.88;;;;;;;19.18;92.17;95465.56;5093511;28;20514;-69
2022/06/27 01:23:27;;;;;;;2.97;2.58;;;;;;;19.18;91.63;95465.56;5077816;28;20081;-69
2022/06/27 01:25:54;;;;;;;6.63;2.65;;;;;;;19.19;91.30;95474.38;5080023;28;20099;-69
2022/06/27 01:28:20;;;;;;;7.35;2.88;;;;;;;19.21;91.62;95474.19;5083240;28;20046;-69
2022/06/27 01:30:45;;;;;;;3.35;3.00;;;;;;;19.17;92.34;95476.41;5081321;28;20668;-69
2022/06/27 01:33:11;;;;;;;3.47;2.80;;;;;;;19.18;92.35;95478.91;5087327;28;20108;-69
2022/06/27 01:35:36;;;;;;;4.80;2.85;;;;;;;19.23;91.23;95474.78;5089993;28;20028;-69
2022/06/27 01:38:02;;;;;;;3.63;2.38;;;;;;;19.23;90.98;95474.78;5084805;28;20103;-69
2022/06/27 01:40:27;;;;;;;4.45;2.60;;;;;;;19.23;91.44;95480.97;5077239;28;20475;-69
2022/06/27 01:42:53;;;;;;;6.30;2.75;;;;;;;19.22;91.84;95476.63;5082322;28;20032;-69
2022/06/27 01:45:18;;;;;;;6.97;2.80;;;;;;;19.25;91.20;95475.41;5079156;28;20074;-69
2022/06/27 01:47:44;;;;;;;10.95;2.90;;;;;;;19.29;91.38;95477.47;5080764;28;20035;-69
2022/06/27 01:50:11;;;;;;;3.10;2.80;;;;;;;19.32;90.95;95474.41;5090935;28;20032;-69
2022/06/27 01:52:38;;;;;;;4.13;3.10;;;;;;;19.34;90.72;95476.84;5082632;28;20115;-68
2022/06/27 01:55:04;;;;;;;8.35;3.20;;;;;;;19.32;91.10;95474.41;5079202;28;20027;-69
2022/06/27 01:57:29;;;;;;;4.65;3.35;;;;;;;19.30;91.35;95476.47;5075243;28;20487;-69
2022/06/27 01:59:55;;;;;;;2.80;2.40;;;;;;;19.29;90.52;95477.47;5088753;28;20031;-69
2022/06/27 02:02:21;;;;;;;4.18;2.75;;;;;;;19.29;90.55;95474.81;5080103;28;20028;-68
2022/06/27 02:04:47;;;;;;;4.20;2.50;;;;;;;19.30;90.73;95475.63;5076187;28;20032;-69
2022/06/27 02:07:13;;;;;;;4.57;2.75;;;;;;;19.27;90.61;95484.03;5079738;28;20039;-69
2022/06/27 02:09:38;;;;;;;3.47;2.50;;;;;;;19.15;91.89;95483.81;5077407;28;20390;-69
2022/06/27 02:12:19;;;;;;;3.60;2.78;;;;;;;19.10;92.38;95489.72;5078293;28;20032;-69
2022/06/27 02:14:50;;;;;;;5.03;2.65;;;;;;;19.11;91.60;95483.38;5082769;28;20040;-69
2022/06/27 02:17:17;;;;;;;4.10;2.72;;;;;;;19.14;91.19;95491.00;5079110;28;20032;-69
2022/06/27 02:19:44;;;;;;;4.03;3.00;;;;;;;19.14;91.21;95492.81;5080850;28;20487;-69
2022/06/27 02:22:11;;;;;;;7.40;2.85;;;;;;;19.10;91.22;95504.94;5089889;28;20038;-69
2022/06/27 02:24:36;;;;;;;4.25;2.88;;;;;;;19.12;90.94;95495.72;5082591;28;20020;-69
2022/06/27 02:27:03;;;;;;;6.05;3.08;;;;;;;19.13;91.75;95492.03;5080130;28;20033;-69
2022/06/27 02:29:28;;;;;;;3.75;3.00;;;;;;;19.18;92.18;95494.06;5080036;28;20103;-69
2022/06/27 02:31:53;;;;;;;2.85;2.60;;;;;;;19.16;92.02;95499.63;5057651;28;20065;-69
2022/06/27 02:34:19;;;;;;;4.13;2.90;;;;;;;19.16;92.78;95490.78;5084478;28;20043;-69
2022/06/27 02:36:47;;;;;;;6.63;2.92;;;;;;;19.11;93.40;95503.91;5086330;28;20402;-69
2022/06/27 02:39:23;;;;;;;4.50;2.90;;;;;;;19.09;93.07;95501.44;5090062;28;20036;-69
2022/06/27 02:41:56;;;;;;;3.05;2.75;;;;;;;19.11;92.71;95502.03;5074277;28;20089;-69
2022/06/27 02:44:22;;;;;;;4.53;2.58;;;;;;;19.12;92.13;95502.88;5076730;28;20165;-69
2022/06/27 02:46:50;;;;;;;3.88;2.80;;;;;;;19.12;92.67;95494.88;5059836;28;20020;-68
2022/06/27 02:49:16;;;;;;;5.72;3.10;;;;;;;19.14;92.19;95499.00;5074352;28;20399;-69
2022/06/27 02:52:03;;;;;;;4.55;2.83;;;;;;;19.18;92.43;95500.25;5082153;28;20026;-69
2022/06/27 02:54:47;;;;;;;4.00;2.67;;;;;;;19.21;91.79;95506.19;5081109;28;20028;-69
2022/06/27 02:57:21;;;;;;;4.90;2.83;;;;;;;19.18;92.17;95505.56;5083144;28;20039;-69
2022/06/27 02:59:51;;;;;;;2.95;2.67;;;;;;;19.18;92.73;95510.91;5079166;28;20032;-69
2022/06/27 03:02:17;;;;;;;5.45;2.50;;;;;;;19.22;92.42;95516.66;5071572;28;20032;-69
2022/06/27 03:04:42;;;;;;;3.67;2.72;;;;;;;19.24;92.47;95524.47;5080214;28;20180;-69
2022/06/27 03:07:07;;;;;;;3.40;2.90;;;;;;;19.23;92.72;95514.81;5075455;28;20029;-69
2022/06/27 03:09:33;;;;;;;3.13;2.70;;;;;;;19.25;92.20;95518.09;5080661;28;20023;-69
2022/06/27 03:11:59;;;;;;;4.20;2.60;;;;;;;19.25;92.84;95526.13;5087695;28;20081;-69
2022/06/27 03:14:24;;;;;;;2.55;2.35;;;;;;;19.20;92.88;95524.03;5090082;28;20036;-69
2022/06/27 03:16:50;;;;;;;6.53;2.67;;;;;;;19.22;93.23;95529.19;5090119;28;20031;-69
2022/06/27 03:19:15;;;;;;;4.32;2.50;;;;;;;19.21;93.25;95536.34;5089980;28;20059;-69
2022/06/27 03:21:41;;;;;;;3.15;2.58;;;;;;;19.18;93.12;95537.59;5090043;28;20039;-69
2022/06/27 03:24:07;;;;;;;2.92;2.72;;;;;;;19.18;93.51;95544.75;5089814;28;20063;-69
2022/06/27 03:26:32;;;;;;;4.45;2.85;;;;;;;19.18;94.18;95547.44;5090147;28;20035;-69
2022/06/27 03:28:58;;;;;;;4.75;3.00;;;;;;;19.18;93.36;95550.94;5089930;28;20032;-69
2022/06/27 03:31:23;;;;;;;6.63;2.97;;;;;;;19.17;93.55;95551.13;5089147;28;20020;-69
2022/06/27 03:33:49;;;;;;;3.63;2.78;;;;;;;19.18;94.09;95555.44;5089442;28;20037;-69
2022/06/27 03:36:15;;;;;;;3.10;2.80;;;;;;;19.18;93.51;95564.28;5092120;28;20817;-69
2022/06/27 03:38:40;;;;;;;2.60;2.40;;;;;;;19.18;94.14;95566.13;5110110;28;20032;-69
2022/06/27 03:41:06;;;;;;;2.50;2.35;;;;;;;19.16;94.20;95563.66;5110320;28;20059;-69
2022/06/27 03:43:31;;;;;;;2.85;2.65;;;;;;;19.12;94.67;95559.75;5110032;28;20478;-69
2022/06/27 03:45:57;;;;;;;3.20;2.90;;;;;;;19.12;95.22;95564.25;5110394;28;20020;-69
2022/06/27 03:51:07;;;;;;;4.20;2.58;;;;;;;19.14;94.36;95568.38;5110052;28;20516;-69
2022/06/27 03:53:32;;;;;;;6.18;2.78;;;;;;;19.10;94.33;95575.09;5110188;28;20114;-70
2022/06/27 03:55:58;;;;;;;5.43;2.90;;;;;;;19.11;95.21;95573.28;5110022;28;20111;-69
2022/06/27 03:58:23;;;;;;;7.75;2.90;;;;;;;19.08;95.51;95579.00;5110207;28;20024;-69
2022/06/27 04:00:49;;;;;;;4.55;2.65;;;;;;;19.05;95.26;95582.88;5113220;28;20019;-69
2022/06/27 04:03:14;;;;;;;2.75;2.53;;;;;;;19.01;95.59;95581.63;5092644;28;20040;-70
2022/06/27 04:05:39;;;;;;;3.25;2.55;;;;;;;19.03;95.99;95584.94;5092966;28;20015;-69
2022/06/27 04:08:05;;;;;;;5.20;2.45;;;;;;;19.07;95.36;95590.72;5093372;28;20042;-70
2022/06/27 04:10:31;;;;;;;2.75;2.53;;;;;;;19.07;95.42;95596.03;5093375;28;20012;-69
2022/06/27 04:12:57;;;;;;;2.75;2.47;;;;;;;19.10;95.12;95592.97;5093561;28;20411;-68
2022/06/27 04:15:22;;;;;;;3.05;2.80;;;;;;;19.08;95.82;95600.34;5093372;28;20102;-67
2022/06/27 04:17:48;;;;;;;2.70;2.50;;;;;;;19.10;95.34;95603.66;5093243;28;20020;-68
2022/06/27 04:20:13;;;;;;;2.65;2.47;;;;;;;19.10;95.77;95601.78;5091549;28;20028;-68
2022/06/27 04:22:38;;;;;;;3.63;2.40;;;;;;;19.10;95.69;95604.44;5081447;28;20020;-68
2022/06/27 04:25:04;;;;;;;4.97;2.70;;;;;;;19.10;94.96;95615.13;5089335;28;20115;-68
2022/06/27 04:27:30;;;;;;;4.07;2.42;;;;;;;19.08;95.19;95617.16;5092403;28;20501;-68
2022/06/27 04:29:56;;;;;;;2.80;2.53;;;;;;;19.08;94.84;95611.84;5091912;28;20020;-68
2022/06/27 04:32:23;;;;;;;3.58;2.63;;;;;;;19.10;94.63;95620.47;5092658;28;20027;-68
2022/06/27 04:34:48;;;;;;;4.07;2.47;;;;;;;19.15;93.97;95623.38;5090950;28;20093;-68
2022/06/27 04:37:16;;;;;;;2.75;2.40;;;;;;;19.18;93.67;95616.81;5113614;28;20110;-68
2022/06/27 04:39:42;;;;;;;4.60;2.72;;;;;;;19.13;93.92;95619.25;5102492;28;20031;-68
2022/06/27 04:42:08;;;;;;;4.53;2.92;;;;;;;19.15;93.72;95615.38;5097254;28;20054;-68
2022/06/27 04:44:38;;;;;;;2.72;2.50;;;;;;;19.15;93.69;95620.72;5105319;28;20051;-68
2022/06/27 04:47:08;;;;;;;2.40;2.20;;;;;;;19.16;93.76;95624.19;5111536;28;20471;-68
2022/06/27 04:49:37;;;;;;;2.85;2.30;;;;;;;19.14;93.41;95621.75;5113496;28;20032;-68
2022/06/27 04:52:06;;;;;;;2.95;2.28;;;;;;;19.13;93.24;95621.91;5105342;28;20019;-67
2022/06/27 04:54:32;;;;;;;3.58;2.70;;;;;;;19.16;93.00;95624.19;5094075;28;20016;-68
2022/06/27 04:56:57;;;;;;;1.92;1.83;;;;;;;19.19;92.69;95626.47;5106868;28;20046;-68
2022/06/27 04:59:23;;;;;;;2.88;2.30;;;;;;;19.18;93.24;95636.31;5113248;28;20435;-68
2022/06/27 05:01:51;;;;;;;7.55;2.55;;;;;;;19.16;92.72;95633.03;5104424;28;20044;-68
2022/06/27 05:04:20;;;;;;;2.47;2.28;;;;;;;19.20;92.99;95641.44;5082727;28;20059;-69
2022/06/27 05:06:47;;;;;;;2.83;2.55;;;;;;;19.17;93.60;95637.34;5092075;28;20103;-68
2022/06/27 05:09:14;;;;;;;2.40;2.30;;;;;;;19.21;93.13;95639.63;5092193;28;20036;-68
2022/06/27 05:11:40;;;;;;;2.75;2.58;;;;;;;19.22;92.53;95634.06;5090788;28;20031;-68
2022/06/27 05:14:07;;;;;;;4.30;2.63;;;;;;;19.22;92.88;95641.25;5092247;28;20024;-68
2022/06/27 05:16:32;;;;;;;2.42;2.25;;;;;;;19.25;92.90;95641.69;5092683;28;20036;-68
2022/06/27 05:18:58;;;;;;;3.78;2.80;;;;;;;19.29;92.46;95645.63;5091992;28;20028;-68
2022/06/27 05:21:23;;;;;;;2.60;2.40;;;;;;;19.30;92.62;95652.59;5083460;28;20028;-68
2022/06/27 05:23:50;;;;;;;2.55;2.30;;;;;;;19.30;93.00;95639.25;5088937;28;20055;-68
2022/06/27 05:26:16;;;;;;;2.50;2.40;;;;;;;19.29;93.13;95647.44;5086226;28;20028;-68
2022/06/27 05:28:42;;;;;;;5.10;2.60;;;;;;;19.30;93.34;95657.09;5072726;28;20089;-68
2022/06/27 05:31:07;;;;;;;2.83;2.55;;;;;;;19.31;93.39;95662.25;5091156;28;20078;-67
2022/06/27 05:33:32;;;;;;;2.58;2.20;;;;;;;19.39;92.21;95663.94;5085962;28;20103;-68
2022/06/27 05:35:58;;;;;;;4.05;2.28;;;;;;;19.41;92.58;95666.38;5093084;28;20032;-68
2022/06/27 05:38:23;;;;;;;5.72;2.80;;;;;;;19.47;92.01;95673.63;5092173;28;20071;-68
2022/06/27 05:40:49;;;;;;;4.28;2.40;;;;;;;19.50;92.02;95672.38;5088788;28;20025;-67
2022/06/27 05:43:14;;;;;;;4.90;2.42;;;;;;;19.49;91.80;95676.09;5080458;28;20038;-68
2022/06/27 05:45:40;;;;;;;2.55;2.33;;;;;;;19.51;91.97;95669.53;5095577;28;20029;-67
2022/06/27 05:48:06;;;;;;;2.40;2.30;;;;;;;19.51;92.08;95668.69;5076510;28;20032;-67
2022/06/27 05:50:33;;;;;;;2.38;2.25;;;;;;;19.49;92.26;95682.25;5075878;28;20036;-68
2022/06/27 05:52:59;;;;;;;2.58;2.17;;;;;;;19.53;91.79;95682.66;5084739;28;20038;-68
2022/06/27 05:55:28;;;;;;;5.10;2.67;;;;;;;19.60;91.53;95684.34;5091083;28;20036;-68
2022/06/27 05:57:55;;;;;;;3.42;2.38;;;;;;;19.61;91.51;95685.19;5091630;28;20028;-68
2022/06/27 06:00:21;;;;;;;2.72;2.50;;;;;;;19.70;90.95;95683.16;5086910;28;20128;-68
2022/06/27 06:02:47;;;;;;;3.95;2.42;;;;;;;19.73;91.16;95696.13;5079273;28;20020;-70
2022/06/27 06:05:14;;;;;;;2.35;2.25;;;;;;;19.79;90.63;95697.19;5095081;28;20088;-68
2022/06/27 06:07:42;;;;;;;2.67;2.20;;;;;;;19.85;90.60;95704.38;5105220;28;20519;-68
2022/06/27 06:10:07;;;;;;;2.40;2.20;;;;;;;19.86;90.40;95706.03;5104947;28;20039;-67
2022/06/27 06:12:34;;;;;;;3.60;2.00;;;;;;;19.99;88.86;95708.75;5084898;28;20514;-67
2022/06/27 06:15:02;;;;;;;5.63;2.30;;;;;;;19.97;88.57;95708.13;5076781;28;20102;-67
2022/06/27 06:17:29;;;;;;;6.63;2.70;;;;;;;20.03;89.15;95717.19;5086729;28;20020;-67
2022/06/27 06:19:55;;;;;;;2.70;2.47;;;;;;;20.07;88.58;95721.13;5081213;28;20020;-67
2022/06/27 06:22:20;;;;;;;3.65;2.30;;;;;;;20.12;88.52;95733.88;5085359;28;20807;-68
2022/06/27 06:24:47;;;;;;;2.10;2.00;;;;;;;20.21;88.15;95735.34;5081073;28;20405;-67
2022/06/27 06:27:13;;;;;;;5.40;2.35;;;;;;;20.31;87.43;95730.44;5090435;28;20589;-67
2022/06/27 06:29:40;;;;;;;4.00;2.35;;;;;;;20.41;87.60;95738.06;5090181;28;20012;-66
2022/06/27 06:32:07;;;;;;;4.50;2.25;;;;;;;20.31;87.97;95748.31;5090993;28;20475;-66
2022/06/27 06:34:33;;;;;;;3.05;2.33;;;;;;;20.30;88.48;95747.50;5090463;28;20008;-67
2022/06/27 06:36:58;;;;;;;2.83;2.50;;;;;;;20.28;88.62;95751.41;5111071;28;20439;-67
2022/06/27 06:39:24;;;;;;;2.83;2.50;;;;;;;20.54;85.90;95755.13;5111208;28;20059;-68
2022/06/27 06:41:50;;;;;;;2.63;2.42;;;;;;;20.50;86.70;95761.94;5110909;28;20015;-67
2022/06/27 06:44:15;;;;;;;3.92;2.60;;;;;;;20.24;87.03;95764.34;5111130;28;20024;-67
2022/06/27 06:46:41;;;;;;;3.92;2.45;;;;;;;20.13;88.65;95759.56;5110851;28;20441;-67
2022/06/27 06:49:09;;;;;;;2.92;2.70;;;;;;;20.07;89.89;95768.41;5110205;28;20591;-67
2022/06/27 06:51:36;;;;;;;5.05;2.58;;;;;;;20.11;90.30;95773.13;5110901;28;20475;-67
2022/06/27 06:54:04;;;;;;;2.65;2.38;;;;;;;20.16;89.94;95784.06;5082365;28;20032;-67
2022/06/27 06:56:30;;;;;;;7.80;2.67;;;;;;;20.05;89.64;95781.94;5110877;28;20044;-67
2022/06/27 06:58:57;;;;;;;4.22;2.97;;;;;;;20.09;90.54;95777.03;5110612;28;20039;-67
2022/06/27 07:01:23;;;;;;;5.18;3.17;;;;;;;20.06;90.78;95786.28;5110763;28;20016;-67
2022/06/27 07:03:49;;;;;;;3.05;2.80;;;;;;;19.91;91.55;95789.09;5110413;28;20089;-67
2022/06/27 07:06:17;;;;;;;3.38;2.85;;;;;;;19.87;92.62;95788.63;5110719;28;20036;-68
2022/06/27 07:08:44;;;;;;;4.35;2.83;;;;;;;19.76;93.07;95795.34;5110838;28;20032;-67
2022/06/27 07:11:10;;;;;;;5.10;2.97;;;;;;;19.75;93.76;95790.22;5110821;28;20126;-67
2022/06/27 07:13:38;;;;;;;5.32;3.10;;;;;;;20.02;92.11;95793.88;5110716;28;20027;-67
2022/06/27 07:16:05;;;;;;;3.08;2.88;;;;;;;19.90;92.54;95798.09;5110471;28;20020;-67
2022/06/27 07:18:31;;;;;;;4.35;3.25;;;;;;;19.70;94.21;95798.00;5110574;28;20059;-67
2022/06/27 07:20:57;;;;;;;7.05;3.40;;;;;;;19.75;93.59;95803.56;5110314;28;20380;-66
2022/06/27 07:23:22;;;;;;;5.95;3.72;;;;;;;19.97;93.00;95804.31;5110299;28;20042;-67
2022/06/27 07:25:47;;;;;;;6.57;2.95;;;;;;;20.09;92.34;95814.44;5110259;28;20031;-67
2022/06/27 07:28:15;;;;;;;3.78;2.60;;;;;;;20.36;90.58;95814.56;5110727;28;20466;-67
2022/06/27 07:30:42;;;;;;;2.75;2.35;;;;;;;20.13;91.71;95813.88;5110744;28;20047;-67
2022/06/27 07:33:08;;;;;;;3.17;2.90;;;;;;;20.14;92.07;95826.19;5107656;28;20401;-67
2022/06/27 07:35:33;;;;;;;3.55;3.25;;;;;;;20.09;91.96;95828.63;5097616;28;20024;-67
2022/06/27 07:38:00;;;;;;;4.35;3.17;;;;;;;20.04;92.50;95834.59;5110411;28;20027;-67
2022/06/27 07:40:25;;;;;;;3.08;2.78;;;;;;;20.14;91.76;95833.38;5110225;28;20135;-67
2022/06/27 07:42:53;;;;;;;3.08;2.83;;;;;;;20.29;89.82;95835.91;5110354;28;20102;-67
2022/06/27 07:45:20;;;;;;;5.78;2.83;;;;;;;20.39;90.06;95838.19;5110198;28;20130;-67
2022/06/27 07:47:48;;;;;;;3.72;2.80;;;;;;;20.38;89.56;95842.75;5110454;28;20032;-67
2022/06/27 07:53:15;;;;;;;4.65;2.92;;;;;;;19.98;92.19;95840.69;5110443;28;20513;-67
2022/06/27 07:55:41;;;;;;;4.60;3.20;;;;;;;19.82;93.58;95851.69;5109742;28;20417;-67
2022/06/27 07:58:09;;;;;;;6.95;4.90;;;;;;;19.86;93.28;95847.59;5110064;28;20035;-67
2022/06/27 08:00:35;;;;;;;8.00;3.70;;;;;;;19.73;93.31;95851.84;5109837;28;20023;-66
2022/06/27 08:03:36;;;;;;;3.47;3.15;;;;;;;19.73;93.80;95854.50;5110451;28;20024;-67
2022/06/27 08:05:50;;;;;;;3.67;3.30;;;;;;;19.47;94.92;95850.63;5109938;28;20020;-67
2022/06/27 08:08:15;;;;;;;6.60;3.65;;;;;;;19.32;95.76;95845.41;5110269;28;20031;-67
2022/06/27 08:10:41;;;;;;;5.22;3.60;;;;;;;19.45;95.16;95852.69;5091509;28;20084;-66
2022/06/27 08:13:06;;;;;;;9.88;3.47;;;;;;;19.42;95.40;95860.22;5109968;28;20080;-66
2022/06/27 08:15:32;;;;;;;3.70;3.40;;;;;;;19.34;96.71;95853.19;5109963;28;20054;-66
2022/06/27 08:17:58;;;;;;;4.32;3.67;;;;;;;19.33;96.19;95857.72;5109858;28;20107;-66
2022/06/27 08:20:23;;;;;;;8.00;3.80;;;;;;;19.27;97.95;95846.97;5109808;28;20035;-67
2022/06/27 08:22:51;;;;;;;7.00;3.55;;;;;;;19.26;97.92;95842.66;5109969;28;20028;-67
2022/06/27 08:25:17;;;;;;;6.10;2.97;;;;;;;19.30;98.10;95860.78;5110048;28;20084;-67
2022/06/27 08:27:44;;;;;;;4.78;3.20;;;;;;;19.45;95.30;95862.50;5109200;28;20023;-67
2022/06/27 08:30:10;;;;;;;8.57;3.35;;;;;;;19.32;96.96;95857.91;5109746;28;20394;-67
2022/06/27 08:32:35;;;;;;;3.28;2.97;;;;;;;19.27;97.55;95873.66;5109877;28;20115;-67
2022/06/27 08:35:01;;;;;;;4.28;2.80;;;;;;;19.54;96.36;95871.22;5095202;28;20115;-67
2022/06/27 08:37:27;;;;;;;8.05;3.22;;;;;;;19.41;95.81;95866.59;5109789;28;20031;-67
2022/06/27 08:39:53;;;;;;;5.65;4.38;;;;;;;19.30;96.73;95876.78;5109593;28;20477;-67
2022/06/27 08:42:19;;;;;;;5.38;3.67;;;;;;;19.26;96.82;95874.69;5110104;28;20449;-67
2022/06/27 08:44:45;;;;;;;8.10;3.95;;;;;;;19.12;97.45;95879.09;5091393;28;20027;-67
2022/06/27 08:47:11;;;;;;;4.85;3.90;;;;;;;19.12;97.10;95885.25;5113179;28;20016;-67
2022/06/27 08:49:39;;;;;;;7.85;2.92;;;;;;;19.05;97.25;95889.69;5113239;28;20035;-67
2022/06/27 08:52:05;;;;;;;8.52;3.28;;;;;;;18.97;97.68;95887.94;5113068;28;20024;-67
2022/06/27 08:54:30;;;;;;;5.20;3.20;;;;;;;18.86;98.84;95889.25;5113483;28;20542;-67
2022/06/27 08:56:56;;;;;;;3.70;3.50;;;;;;;18.69;100.00;95895.88;5112995;28;20043;-67
2022/06/27 08:59:22;;;;;;;7.35;4.95;;;;;;;18.57;100.00;95904.34;5113458;28;20402;-67
2022/06/27 09:01:48;;;;;;;8.02;4.18;;;;;;;18.89;99.89;95901.41;5113244;28;20504;-67
2022/06/27 09:04:13;;;;;;;5.88;4.22;;;;;;;18.54;100.00;95902.06;5112797;28;20494;-67
2022/06/27 09:06:42;;;;;;;6.20;5.68;;;;;;;18.59;100.00;95918.31;5112914;28;20023;-68
2022/06/27 09:09:08;;;;;;;3.22;2.92;;;;;;;18.54;100.00;95917.22;5113014;28;20394;-69
2022/06/27 09:11:37;;;;;;;3.15;2.35;;;;;;;18.44;100.00;95917.50;5112949;28;20016;-70
2022/06/27 09:14:05;;;;;;;4.75;2.35;;;;;;;18.36;99.69;95917.59;5112840;28;20032;-69
2022/06/27 09:16:31;;;;;;;2.58;2.38;;;;;;;18.24;100.00;95919.91;5112739;28;20157;-70
2022/06/27 09:18:57;;;;;;;2.47;2.33;;;;;;;18.16;100.00;95920.84;5112502;28;20032;-69
2022/06/27 09:21:23;;;;;;;2.20;2.10;;;;;;;18.15;100.00;95919.19;5113126;28;20039;-69
2022/06/27 09:24:01;;;;;;;2.63;2.08;;;;;;;18.10;100.00;95927.72;5112871;28;20046;-68
2022/06/27 09:26:31;;;;;;;2.22;2.03;;;;;;;18.09;99.73;95920.72;5112880;28;20024;-69
2022/06/27 09:29:06;;;;;;;2.30;2.10;;;;;;;18.09;99.56;95919.94;5112590;28;20054;-68
2022/06/27 09:31:35;;;;;;;1.90;1.80;;;;;;;18.22;98.46;95917.44;5085458;28;20028;-68
2022/06/27 09:34:18;;;;;;;2.28;2.10;;;;;;;18.09;98.64;95919.94;5102967;28;20024;-69
2022/06/27 09:36:55;;;;;;;4.15;2.08;;;;;;;18.08;98.34;95920.94;5109845;28;20011;-69
2022/06/27 09:39:28;;;;;;;2.28;2.08;;;;;;;17.96;98.28;95928.53;5112419;28;20490;-68
2022/06/27 09:41:58;;;;;;;4.47;2.47;;;;;;;17.89;99.58;95933.75;5112444;28;20521;-69
2022/06/27 09:44:26;;;;;;;4.25;1.92;;;;;;;17.82;99.48;95930.16;5112451;28;20502;-69
2022/06/27 09:47:16;;;;;;;2.00;1.90;;;;;;;17.79;100.00;95933.16;5112088;28;20513;-68
2022/06/27 09:49:44;;;;;;;2.03;1.77;;;;;;;17.75;100.00;95936.19;5111829;28;20075;-69
2022/06/27 09:52:13;;;;;;;3.42;2.10;;;;;;;17.82;100.00;95941.63;5112077;28;20452;-69
2022/06/27 09:54:41;;;;;;;2.47;1.95;;;;;;;17.79;100.00;95933.16;5112078;28;20028;-70
2022/06/27 09:57:08;;;;;;;3.15;2.10;;;;;;;17.81;100.00;95937.31;5110942;28;20093;-71
2022/06/27 09:59:35;;;;;;;1.80;1.70;;;;;;;17.74;100.00;95939.06;5093725;28;20027;-71
2022/06/27 10:02:01;;;;;;;1.83;1.65;;;;;;;17.81;100.00;95944.50;5111932;28;20042;-72
2022/06/27 10:04:28;;;;;;;2.22;1.80;;;;;;;17.66;100.00;95936.44;5112056;28;20490;-71
2022/06/27 10:06:56;;;;;;;2.70;1.67;;;;;;;17.63;100.00;95936.81;5111921;28;20055;-71
2022/06/27 10:09:24;;;;;;;4.20;1.65;;;;;;;17.59;100.00;95947.03;5111648;28;20486;-71
2022/06/27 10:12:24;;;;;;;1.77;1.67;;;;;;;17.69;100.00;95950.25;5111931;28;20104;-71
2022/06/27 10:15:11;;;;;;;4.00;1.80;;;;;;;17.76;100.00;95943.19;5111683;28;20027;-70
2022/06/27 10:17:46;;;;;;;1.50;1.40;;;;;;;17.80;100.00;95948.16;5111588;28;20016;-71
2022/06/27 10:20:16;;;;;;;;;;;;;;;17.90;99.75;95949.56;5112142;28;20036;-71
2022/06/27 10:22:42;;;;;;;6.50;1.35;;;;;;;17.92;99.43;95951.22;5111381;28;19911;-70
2022/06/27 10:25:26;;;;;;;2.50;1.13;;;;;;;17.97;98.22;95941.66;5111449;28;20032;-70
2022/06/27 10:28:22;;;;;;;1.08;1.08;;;;;;;18.05;98.14;95943.44;5111339;28;20019;-70
2022/06/27 10:30:58;;;;;;;1.33;1.30;;;;;;;18.11;97.41;95941.88;5094521;28;20051;-70
2022/06/27 10:33:26;;;;;;;1.15;1.15;;;;;;;18.00;93.69;95951.13;5107030;28;20031;-70
2022/06/27 10:35:57;;;;;;;1.42;1.30;;;;;;;17.93;94.72;95944.88;5101700;28;20051;-69
2022/06/27 10:38:23;;;;;;;1.50;1.40;;;;;;;17.99;95.58;95952.94;5111033;28;20019;-69
2022/06/27 10:40:49;;;;;;;1.52;1.42;;;;;;;17.96;94.16;95952.50;5111205;28;20434;-69
2022/06/27 10:43:37;;;;;;;1.27;1.27;;;;;;;18.00;92.88;95946.59;5111267;28;20040;-69
2022/06/27 10:46:08;;;;;;;1.30;1.30;;;;;;;18.17;93.63;95946.47;5111276;28;20026;-68
2022/06/27 10:48:36;;;;;;;1.17;1.10;;;;;;;18.18;92.19;95950.78;5111052;28;20023;-68
2022/06/27 10:51:21;;;;;;;1.40;1.00;;;;;;;18.15;93.09;95949.34;5111264;28;20030;-68
2022/06/27 10:53:47;;;;;;;1.27;1.17;;;;;;;18.24;93.35;95942.06;5110874;28;20397;-68
2022/06/27 10:56:32;;;;;;;1.10;1.10;;;;;;;18.43;93.47;95947.84;5110633;28;20052;-68
2022/06/27 10:58:59;;;;;;;2.35;1.10;;;;;;;18.52;91.92;95945.91;5110543;28;20043;-68
2022/06/27 11:01:24;;;;;;;1.17;1.00;;;;;;;18.60;92.53;95946.63;5110728;28;20143;-68
2022/06/27 11:03:51;;;;;;;1.10;1.10;;;;;;;18.73;90.71;95942.47;5110743;28;20485;-68
2022/06/27 11:06:17;;;;;;;0.95;0.95;;;;;;;18.83;89.38;95948.31;5092479;28;20406;-68
2022/06/27 11:08:45;;;;;;;1.33;1.20;;;;;;;18.97;90.39;95943.16;5110687;28;20391;-68
2022/06/27 11:11:26;;;;;;;2.08;1.00;;;;;;;19.12;88.42;95937.78;5110563;28;20080;-68
2022/06/27 11:13:55;;;;;;;0.82;0.82;;;;;;;19.40;87.74;95940.53;5092081;28;20032;-68
2022/06/27 11:16:24;;;;;;;1.40;0.70;;;;;;;19.44;84.73;95940.94;5110591;28;20028;-67
2022/06/27 11:18:59;;;;;;;0.80;0.80;;;;;;;19.39;82.61;95946.88;5110409;28;20028;-68
2022/06/27 11:21:26;;;;;;;0.80;0.80;;;;;;;19.28;82.17;95948.22;5110593;28;20169;-68
2022/06/27 11:23:56;;;;;;;0.80;0.80;;;;;;;19.12;83.97;95943.97;5098222;28;20020;-67
2022/06/27 11:26:27;;;;;;;1.17;1.05;;;;;;;19.14;85.50;95939.25;5089801;28;20020;-68
2022/06/27 11:34:21;;;;;;;0.80;0.80;;;;;;;19.34;84.45;95946.59;5095984;28;20072;-68
2022/06/27 11:36:47;;;;;;;1.00;1.00;;;;;;;19.35;81.98;95934.09;5110240;28;20019;-67
2022/06/27 11:39:14;;;;;;;3.53;0.98;;;;;;;19.41;78.92;95944.00;5110288;28;20469;-68
2022/06/27 11:41:40;;;;;;;0.98;0.90;;;;;;;19.56;80.55;95949.28;5102433;28;20552;-68
2022/06/27 11:44:08;;;;;;;0.82;0.82;;;;;;;19.79;80.91;95953.59;5104295;28;20035;-68
2022/06/27 11:46:36;;;;;;;1.52;1.40;;;;;;;20.14;80.58;95945.63;5082051;28;20042;-68